DW7662 Weather Reports


time (UTC)temp
C
wind
direction
speed
KPH
gust
KPH
rain 1hr
cm
rain 24hr
cm
rain mn
cm
humidity
%
barometer
mb
20190426134315 17 0 0.0 0.0 0.00 0.00 0.00 93
20190426133415 17 0 0.0 0.0 0.00 0.00 0.00 93
20190426132515 17 0 0.0 0.0 0.00 0.00 0.00 93
20190426131615 17 0 0.0 0.0 0.00 0.00 0.00 93
20190426130715 17 28 0.0 1.6 0.00 0.00 0.00 92
20190426125815 17 0 0.0 0.0 0.00 0.00 0.00 92
20190426124915 17 0 0.0 0.0 0.00 0.00 0.00 92
20190426124015 17 0 0.0 0.0 0.00 0.00 0.00 92
20190426123115 18 28 0.0 3.2 0.00 0.00 0.00 91
20190426122215 18 28 0.0 1.6 0.00 0.00 0.00 91
20190426121315 18 0 0.0 0.0 0.00 0.00 0.00 90
20190426120415 18 28 0.0 1.6 0.00 0.00 0.00 90
20190426115515 18 28 0.0 1.6 0.00 0.00 0.00 90
20190426114615 18 0 0.0 0.0 0.00 0.00 0.00 89
20190426113715 18 0 0.0 0.0 0.00 0.00 0.00 89
20190426112815 18 0 0.0 0.0 0.00 0.00 0.00 89
20190426111916 18 28 0.0 1.6 0.00 0.00 0.00 88
20190426111015 19 0 0.0 0.0 0.00 0.00 0.00 87
20190426110115 19 0 0.0 0.0 0.00 0.00 0.00 86
20190426105215 19 0 0.0 0.0 0.00 0.00 0.00 85
20190426104315 20 0 0.0 0.0 0.00 0.00 0.00 84
20190426103414 20 0 0.0 0.0 0.00 0.00 0.00 84
20190426102515 20 0 0.0 0.0 0.00 0.00 0.00 84
20190426101615 20 0 0.0 0.0 0.00 0.00 0.00 83
20190426100714 20 0 0.0 0.0 0.00 0.00 0.00 81
20190426095815 21 0 0.0 0.0 0.00 0.00 0.00 79
20190426094915 21 0 0.0 0.0 0.00 0.00 0.00 79
20190426094014 21 0 0.0 0.0 0.00 0.00 0.00 78
20190426093115 21 0 0.0 0.0 0.00 0.00 0.00 78
20190426092215 21 0 0.0 0.0 0.00 0.00 0.00 77
20190426091314 21 0 0.0 0.0 0.00 0.00 0.00 76
20190426090414 21 28 0.0 3.2 0.00 0.00 0.00 76
20190426085516 21 28 0.0 1.6 0.00 0.00 0.00 75
20190426084614 21 28 0.0 1.6 0.00 0.00 0.00 75
20190426083715 22 28 1.6 4.8 0.00 0.00 0.00 74
20190426082814 22 21 1.6 8.0 0.00 0.00 0.00 73
20190426081914 22 36 1.6 8.0 0.00 0.00 0.00 72
20190426081014 22 39 3.2 6.4 0.00 0.00 0.00 71
20190426080115 22 35 1.6 6.4 0.00 0.00 0.00 70
20190426075214 22 35 1.6 6.4 0.00 0.00 0.00 69
20190426074314 22 35 1.6 4.8 0.00 0.00 0.00 69
20190426073415 22 33 4.8 8.0 0.00 0.00 0.00 68
20190426072514 22 37 3.2 6.4 0.00 0.00 0.00 67
20190426071614 23 44 4.8 8.0 0.00 0.00 0.00 67
20190426070716 23 41 4.8 8.0 0.00 0.00 0.00 67
20190426065814 23 31 4.8 11.3 0.00 0.00 0.00 68
20190426064914 23 51 8.0 12.9 0.00 0.00 0.00 69
20190426064014 23 51 6.4 12.9 0.00 0.00 0.00 69
20190426063114 23 59 6.4 12.9 0.00 0.00 0.00 68
20190426062215 23 47 8.0 16.1 0.00 0.00 0.00 67
20190426061315 24 48 9.7 17.7 0.00 0.00 0.00 66
20190426060414 25 51 9.7 17.7 0.00 0.00 0.00 64
20190426055514 25 69 8.0 16.1 0.00 0.00 0.00 63
20190426054619 25 56 8.0 17.7 0.00 0.00 0.00 62
20190426053714 25 57 6.4 16.1 0.00 0.00 0.00 61
20190426052814 25 60 8.0 16.1 0.00 0.00 0.00 61
20190426051914 25 62 8.0 14.5 0.00 0.00 0.00 62
20190426051014 25 44 8.0 16.1 0.00 0.00 0.00 63
20190426050114 26 23 3.2 12.9 0.00 0.00 0.00 61
20190426045215 27 8 3.2 11.3 0.00 0.00 0.00 58
20190426044314 27 325 1.6 9.7 0.00 0.00 0.00 56
20190426043414 28 339 1.6 9.7 0.00 0.00 0.00 55
20190426042514 27 341 1.6 6.4 0.00 0.00 0.00 56
20190426041614 28 349 3.2 8.0 0.00 0.00 0.00 57
20190426040714 27 13 3.2 11.3 0.00 0.00 0.00 57
20190426035814 27 42 3.2 9.7 0.00 0.00 0.00 58
20190426034914 27 42 4.8 14.5 0.00 0.00 0.00 58
20190426034014 27 59 1.6 6.4 0.00 0.00 0.00 58
20190426033114 26 71 4.8 9.7 0.00 0.00 0.00 61
20190426032214 26 53 4.8 11.3 0.00 0.00 0.00 60
20190426031314 27 82 1.6 8.0 0.00 0.00 0.00 58
20190426030414 27 151 1.6 6.4 0.00 0.00 0.00 60
20190426025514 26 167 1.6 6.4 0.00 0.00 0.00 61
20190426024614 27 132 0.0 4.8 0.00 0.00 0.00 60
20190426023714 27 118 1.6 6.4 0.00 0.00 0.00 60
20190426022814 27 91 0.0 4.8 0.00 0.00 0.00 61
20190426021914 26 83 1.6 4.8 0.00 0.00 0.00 61
20190426021014 26 64 0.0 4.8 0.00 0.00 0.00 64
20190426020114 25 58 1.6 6.4 0.00 0.00 0.00 64
20190426015214 25 70 3.2 8.0 0.00 0.00 0.00 63
20190426014314 25 110 1.6 4.8 0.00 0.00 0.00 64
20190426013414 25 131 0.0 3.2 0.00 0.00 0.00 64
20190426012514 25 114 0.0 3.2 0.00 0.00 0.00 63
20190426011614 25 113 1.6 6.4 0.00 0.00 0.00 66
20190426010714 25 105 1.6 9.7 0.00 0.00 0.00 66
20190426005814 25 128 1.6 4.8 0.00 0.00 0.00 66
20190426004914 25 105 1.6 4.8 0.00 0.00 0.00 68
20190426004014 25 133 1.6 6.4 0.00 0.00 0.00 69
20190426003114 25 104 1.6 6.4 0.00 0.00 0.00 69
20190426002213 25 198 1.6 4.8 0.00 0.00 0.00 70
20190426001314 25 204 1.6 6.4 0.00 0.03 0.00 71
20190426000414 25 143 1.6 6.4 0.00 0.03 0.00 71
20190425235514 24 151 1.6 6.4 0.00 0.03 0.00 72
20190425234614 24 154 1.6 6.4 0.00 0.03 0.00 73
20190425233713 24 178 1.6 8.0 0.00 0.03 0.00 75
20190425232814 23 205 1.6 6.4 0.00 0.03 0.00 74
20190425231914 23 152 0.0 4.8 0.00 0.03 0.00 76
20190425231014 23 161 3.2 8.0 0.00 0.03 0.00 78
20190425230114 22 160 1.6 6.4 0.00 0.03 0.00 80
20190425225213 22 189 1.6 6.4 0.00 0.03 0.00 82
20190425224314 21 200 3.2 8.0 0.00 0.03 0.00 84
20190425223413 21 210 1.6 8.0 0.00 0.03 0.00 85
20190425222513 21 205 1.6 8.0 0.00 0.03 0.00 85
20190425221613 20 230 1.6 4.8 0.00 0.03 0.00 85
20190425220714 20 230 0.0 3.2 0.00 0.03 0.00 86
20190425215813 20 230 0.0 6.4 0.00 0.03 0.00 87
20190425214913 20 230 0.0 4.8 0.00 0.03 0.00 89
20190425214013 19 230 0.0 4.8 0.00 0.03 0.00 90
20190425213113 19 230 0.0 1.6 0.00 0.03 0.00 91
20190425212213 18 230 0.0 3.2 0.00 0.03 0.00 92
20190425211313 18 230 0.0 3.2 0.00 0.03 0.00 92
20190425210416 18 230 0.0 3.2 0.00 0.03 0.00 91
20190425205514 18 229 1.6 4.8 0.00 0.03 0.00 92
20190425204613 18 214 3.2 8.0 0.00 0.03 0.00 92
20190425203713 18 214 1.6 8.0 0.00 0.03 0.00 93
20190425202813 18 195 1.6 8.0 0.00 0.03 0.00 93
20190425201913 18 213 1.6 11.3 0.00 0.03 0.00 94
20190425201014 17 225 1.6 6.4 0.00 0.03 0.00 95
20190425200113 17 231 1.6 6.4 0.00 0.03 0.00 95
20190425195214 17 216 1.6 6.4 0.00 0.03 0.00 95
20190425194313 17 246 1.6 4.8 0.00 0.03 0.00 96
20190425193413 17 263 0.0 1.6 0.00 0.03 0.00 96
20190425192513 17 263 0.0 1.6 0.00 0.03 0.00 96
20190425191614 17 263 0.0 3.2 0.00 0.03 0.00 96
20190425190713 17 263 0.0 1.6 0.00 0.03 0.00 96
20190425185813 17 263 0.0 3.2 0.00 0.03 0.00 96
20190425184913 17 263 0.0 1.6 0.00 0.03 0.00 96
20190425184013 17 263 0.0 3.2 0.00 0.03 0.00 96
20190425183113 17 284 0.0 3.2 0.00 0.03 0.00 96
20190425182213 17 0 0.0 0.0 0.00 0.03 0.00 96
20190425181313 17 0 0.0 0.0 0.00 0.03 0.00 96
20190425180413 17 0 0.0 0.0 0.00 0.03 0.00 96
20190425175513 17 312 0.0 1.6 0.00 0.03 0.00 96
20190425174613 17 312 0.0 3.2 0.00 0.03 0.00 96
20190425173714 17 320 0.0 3.2 0.00 0.03 0.00 96
20190425172814 17 0 0.0 0.0 0.00 0.03 0.00 96
20190425171913 17 0 0.0 0.0 0.00 0.03 0.00 96
20190425171018 17 346 0.0 1.6 0.00 0.03 0.00 96
20190425170113 17 346 0.0 1.6 0.00 0.03 0.00 96
20190425165231 17 346 0.0 1.6 0.00 0.03 0.00 96
20190425164313 17 346 0.0 1.6 0.00 0.03 0.00 95
20190425163413 17 0 0.0 0.0 0.00 0.03 0.00 96
20190425162513 17 0 0.0 0.0 0.00 0.03 0.00 96
20190425161613 17 0 0.0 0.0 0.00 0.03 0.00 95
20190425160713 17 0 0.0 0.0 0.00 0.03 0.00 95
20190425155813 17 346 0.0 1.6 0.00 0.03 0.00 95
20190425154913 17 0 0.0 0.0 0.00 0.03 0.00 95
20190425154013 17 0 0.0 0.0 0.00 0.03 0.00 95
20190425153113 17 346 0.0 1.6 0.00 0.03 0.00 95
20190425152213 17 0 0.0 0.0 0.00 0.03 0.00 95
20190425151313 17 346 0.0 4.8 0.00 0.03 0.00 95
20190425150413 17 346 0.0 1.6 0.00 0.03 0.00 95
20190425145513 17 0 0.0 0.0 0.00 0.03 0.00 95
20190425144613 17 0 0.0 0.0 0.00 0.03 0.00 94
20190425143713 17 0 0.0 0.0 0.00 0.03 0.00 94
20190425142815 17 346 0.0 1.6 0.00 0.03 0.00 94
20190425141913 17 0 0.0 0.0 0.00 0.03 0.00 94
20190425141013 17 0 0.0 0.0 0.00 0.03 0.00 94
20190425140113 17 0 0.0 0.0 0.00 0.03 0.00 94
20190425135213 17 0 0.0 0.0 0.00 0.03 0.03 94